createdAt,value
2023-02-11T00:03:53.386Z,18.40
2023-02-11T00:08:22.209Z,20.10
2023-02-11T00:12:51.001Z,23.10
2023-02-11T00:17:10.321Z,20.00
2023-02-11T00:21:02.939Z,19.70
2023-02-11T00:24:51.724Z,18.90
2023-02-11T00:29:00.663Z,19.20
2023-02-11T00:32:49.513Z,16.90
2023-02-11T00:36:39.002Z,17.30
2023-02-11T00:40:48.282Z,16.60
2023-02-11T00:44:50.036Z,15.60
2023-02-11T00:49:19.193Z,15.10
2023-02-11T00:53:28.587Z,14.60
2023-02-11T00:57:18.300Z,14.60
2023-02-11T01:01:07.543Z,13.50
2023-02-11T01:04:49.667Z,13.60
2023-02-11T01:09:08.303Z,13.60
2023-02-11T01:13:37.200Z,13.90
2023-02-11T01:17:42.870Z,14.60
2023-02-11T01:21:32.129Z,13.50
2023-02-11T01:25:44.743Z,14.10
2023-02-11T01:29:53.981Z,13.30
2023-02-11T01:34:22.914Z,14.10
2023-02-11T01:38:12.078Z,13.00
2023-02-11T01:42:00.887Z,13.90
2023-02-11T01:45:49.249Z,14.00
2023-02-11T01:49:38.781Z,13.80
2023-02-11T01:53:45.948Z,13.00
2023-02-11T01:57:45.584Z,13.30
2023-02-11T02:01:54.549Z,12.20
2023-02-11T02:06:00.622Z,12.80
2023-02-11T02:09:50.259Z,12.80
2023-02-11T02:13:50.949Z,13.70
2023-02-11T02:18:25.890Z,12.60
2023-02-11T02:22:56.678Z,13.60
2023-02-11T02:27:07.348Z,13.80
2023-02-11T02:31:22.248Z,13.70
2023-02-11T02:35:56.429Z,14.90
2023-02-11T02:40:25.403Z,14.50
2023-02-11T02:44:14.525Z,15.30
2023-02-11T02:48:43.557Z,14.60
2023-02-11T02:52:30.324Z,14.20
2023-02-11T02:56:35.315Z,14.30
2023-02-11T03:00:26.299Z,15.30
2023-02-11T03:04:44.350Z,14.80
2023-02-11T03:08:58.090Z,13.20
2023-02-11T03:13:05.631Z,14.80
2023-02-11T03:16:57.323Z,14.50
2023-02-11T03:20:45.150Z,13.80
2023-02-11T03:25:23.034Z,13.80
2023-02-11T03:29:39.834Z,12.90
2023-02-11T03:33:54.858Z,12.90
2023-02-11T03:38:16.101Z,12.00
2023-02-11T03:42:09.311Z,12.90
2023-02-11T03:46:01.890Z,12.80
2023-02-11T03:49:44.389Z,12.60
2023-02-11T03:53:33.431Z,13.30
2023-02-11T03:57:43.273Z,12.10
2023-02-11T04:01:52.091Z,11.80
2023-02-11T04:06:01.120Z,12.40
2023-02-11T04:10:17.532Z,13.30
2023-02-11T04:14:06.726Z,14.10
2023-02-11T04:18:15.756Z,13.90
2023-02-11T04:22:44.568Z,14.20
2023-02-11T04:26:33.474Z,13.80
2023-02-11T04:31:02.683Z,15.40
2023-02-11T04:34:51.873Z,15.20
2023-02-11T04:38:53.771Z,14.30
2023-02-11T04:43:03.352Z,15.40
2023-02-11T04:47:12.606Z,13.90
2023-02-11T04:51:41.777Z,16.70
2023-02-11T04:56:10.632Z,14.40
2023-02-11T04:59:59.939Z,16.70
2023-02-11T05:03:48.724Z,16.00
2023-02-11T05:07:38.279Z,15.50
2023-02-11T05:11:20.069Z,14.80
2023-02-11T05:15:49.412Z,15.10
2023-02-11T05:19:58.711Z,17.00
2023-02-11T05:24:07.968Z,16.80
2023-02-11T05:27:57.148Z,16.00
2023-02-11T05:31:40.530Z,16.50
2023-02-11T05:35:57.169Z,17.40
2023-02-11T05:40:26.117Z,15.90
2023-02-11T05:44:35.263Z,17.60
2023-02-11T05:48:24.303Z,15.00
2023-02-11T05:52:13.452Z,17.60
2023-02-11T05:56:23.006Z,15.40
2023-02-11T06:00:32.480Z,18.10
2023-02-11T06:04:36.883Z,18.10
2023-02-11T06:09:04.278Z,16.60
2023-02-11T06:13:06.506Z,17.10
2023-02-11T06:16:58.274Z,16.40
2023-02-11T06:21:07.630Z,17.50
2023-02-11T06:25:16.880Z,17.80
2023-02-11T06:29:26.058Z,18.10
2023-02-11T06:33:35.377Z,17.10
2023-02-11T06:37:44.706Z,17.80
2023-02-11T06:42:13.730Z,17.20
2023-02-11T06:46:42.864Z,17.40
2023-02-11T06:50:32.017Z,17.80
2023-02-11T06:54:26.543Z,18.00
2023-02-11T06:58:55.352Z,19.80
2023-02-11T07:02:45.428Z,19.60
2023-02-11T07:06:34.592Z,20.10
2023-02-11T07:10:43.748Z,20.50
2023-02-11T07:14:33.279Z,19.70
2023-02-11T07:18:42.132Z,22.30
2023-02-11T07:22:51.223Z,23.20
2023-02-11T07:27:00.325Z,20.90
2023-02-11T07:30:50.367Z,22.90
2023-02-11T07:34:41.402Z,23.00
2023-02-11T07:38:30.845Z,22.70
2023-02-11T07:42:40.158Z,22.30
2023-02-11T07:47:00.396Z,21.70
2023-02-11T07:51:09.766Z,23.00
2023-02-11T07:54:59.905Z,22.00
2023-02-11T07:59:28.684Z,22.10
2023-02-11T08:03:57.840Z,24.50
2023-02-11T08:07:46.780Z,24.20
2023-02-11T08:11:37.452Z,24.50
2023-02-11T08:16:06.504Z,23.90
2023-02-11T08:19:55.579Z,24.30
2023-02-11T08:23:44.407Z,23.40
2023-02-11T08:27:53.543Z,23.60
2023-02-11T08:32:22.305Z,24.10
2023-02-11T08:36:24.105Z,23.90
2023-02-11T08:40:53.009Z,23.20
2023-02-11T08:45:21.749Z,23.80
2023-02-11T08:49:30.787Z,25.40
2023-02-11T08:53:40.035Z,21.50
2023-02-11T08:57:44.164Z,23.30
2023-02-11T09:01:33.380Z,25.90
2023-02-11T09:05:22.533Z,24.60
2023-02-11T09:09:12.836Z,21.50
2023-02-11T09:13:21.680Z,22.60
2023-02-11T09:17:30.689Z,24.60
2023-02-11T09:22:07.717Z,22.40
2023-02-11T09:26:16.789Z,23.40
2023-02-11T09:30:25.757Z,22.90
2023-02-11T09:34:34.593Z,24.20
2023-02-11T09:38:23.618Z,24.00
2023-02-11T09:42:43.165Z,24.10
2023-02-11T09:46:52.581Z,24.20
2023-02-11T09:51:01.753Z,23.90
2023-02-11T09:55:19.336Z,22.60
2023-02-11T09:59:11.543Z,23.10
2023-02-11T10:03:49.325Z,22.80
2023-02-11T10:08:45.680Z,25.00
2023-02-11T10:13:12.820Z,23.30
2023-02-11T10:19:24.915Z,25.40
2023-02-11T10:22:24.539Z,24.00
2023-02-11T10:31:15.020Z,24.70
2023-02-11T10:35:26.663Z,23.70
2023-02-11T10:39:16.453Z,26.20
2023-02-11T10:42:44.032Z,26.20
2023-02-11T10:46:44.904Z,27.20
2023-02-11T10:50:40.612Z,24.20
2023-02-11T10:54:23.715Z,28.00
2023-02-11T10:58:29.295Z,25.30
2023-02-11T11:02:40.147Z,26.70
2023-02-11T11:07:11.006Z,25.10
2023-02-11T11:11:06.771Z,27.90
2023-02-11T11:15:14.387Z,28.10
2023-02-11T11:19:02.653Z,28.90
2023-02-11T11:23:30.069Z,28.70
2023-02-11T11:27:21.822Z,28.80
2023-02-11T11:31:12.343Z,29.10
2023-02-11T11:35:22.265Z,29.30
2023-02-11T11:40:05.003Z,29.00
2023-02-11T11:44:18.838Z,27.10
2023-02-11T11:51:03.904Z,30.40
2023-02-11T11:54:50.858Z,29.90
2023-02-11T12:06:58.625Z,30.70
2023-02-11T12:15:09.519Z,27.20
2023-02-11T12:18:49.441Z,28.00
2023-02-11T12:22:40.206Z,30.70
2023-02-11T12:37:26.466Z,30.10
2023-02-11T12:42:06.849Z,29.50
2023-02-11T12:50:43.007Z,30.30
2023-02-11T12:54:33.194Z,31.10
2023-02-11T13:12:38.052Z,27.10
2023-02-11T13:18:06.721Z,29.90
2023-02-11T13:39:01.720Z,31.80
2023-02-11T13:42:52.722Z,29.30
2023-02-11T13:46:48.084Z,27.20
2023-02-11T13:50:55.688Z,27.50
2023-02-11T13:55:29.042Z,26.50
2023-02-11T13:59:29.250Z,28.30
2023-02-11T14:04:10.110Z,27.70
2023-02-11T14:08:08.490Z,29.00
2023-02-11T14:13:01.995Z,30.00
2023-02-11T14:18:44.316Z,30.40
2023-02-11T14:22:02.077Z,29.30
2023-02-11T14:25:50.023Z,29.40
2023-02-11T14:29:51.441Z,30.60
2023-02-11T14:33:33.106Z,27.50
2023-02-11T14:38:01.784Z,29.70
2023-02-11T14:42:07.776Z,27.40
2023-02-11T14:45:55.279Z,28.90
2023-02-11T14:50:10.846Z,27.50
2023-02-11T14:53:58.292Z,27.80
2023-02-11T14:57:47.063Z,27.10
2023-02-11T15:02:09.563Z,26.20
2023-02-11T15:05:57.581Z,25.80
2023-02-11T15:09:43.993Z,23.90
2023-02-11T15:13:53.083Z,24.80
2023-02-11T15:17:42.842Z,24.60
2023-02-11T15:21:30.808Z,24.80
2023-02-11T15:25:39.265Z,22.50
2023-02-11T15:29:26.698Z,22.50
2023-02-11T15:33:04.353Z,20.90
2023-02-11T15:37:08.529Z,22.80
2023-02-11T15:41:16.397Z,23.50
2023-02-11T15:45:11.094Z,21.70
2023-02-11T15:49:16.357Z,21.80
2023-02-11T15:52:57.296Z,21.70
2023-02-11T15:56:44.325Z,21.20
2023-02-11T16:00:31.781Z,18.80
2023-02-11T16:04:19.306Z,19.70
2023-02-11T16:08:37.140Z,21.10
2023-02-11T16:12:32.201Z,18.40
2023-02-11T16:16:30.546Z,18.50
2023-02-11T16:20:38.196Z,18.50
2023-02-11T16:24:27.576Z,16.40
2023-02-11T16:28:15.168Z,18.10
2023-02-11T16:32:02.865Z,16.60
2023-02-11T16:35:50.734Z,17.20
2023-02-11T16:39:38.539Z,16.50
2023-02-11T16:43:17.623Z,15.50
2023-02-11T16:47:05.510Z,16.70
2023-02-11T16:50:53.671Z,16.80
2023-02-11T16:54:40.022Z,15.50
2023-02-11T16:58:27.402Z,16.30
2023-02-11T17:02:07.595Z,14.30
2023-02-11T17:05:56.067Z,14.70
2023-02-11T17:09:42.589Z,16.90
2023-02-11T17:13:30.089Z,14.60
2023-02-11T17:17:13.129Z,16.40
2023-02-11T17:21:00.943Z,14.40
2023-02-11T17:24:48.504Z,15.40
2023-02-11T17:29:16.587Z,15.10
2023-02-11T17:32:51.311Z,15.30
2023-02-11T17:41:39.517Z,14.10
2023-02-11T17:45:15.350Z,13.20
2023-02-11T17:49:18.468Z,12.10
2023-02-11T17:54:40.760Z,14.00
2023-02-11T17:56:58.464Z,14.00
2023-02-11T18:01:05.704Z,13.90
2023-02-11T18:04:45.202Z,12.40
2023-02-11T18:08:32.802Z,13.30
2023-02-11T18:12:20.578Z,13.60
2023-02-11T18:16:16.209Z,14.20
2023-02-11T18:19:53.890Z,13.30
2023-02-11T18:23:41.529Z,13.70
2023-02-11T18:27:30.066Z,13.80
2023-02-11T18:31:17.835Z,11.70
2023-02-11T18:35:06.110Z,11.40
2023-02-11T18:39:40.463Z,11.40
2023-02-11T18:42:39.552Z,11.60
2023-02-11T18:46:20.443Z,12.20
2023-02-11T18:50:21.510Z,11.80
2023-02-11T18:54:32.772Z,10.90
2023-02-11T18:58:04.683Z,11.00
2023-02-11T19:01:37.833Z,11.50
2023-02-11T19:05:15.537Z,11.90
2023-02-11T19:09:05.487Z,11.30
2023-02-11T19:12:44.578Z,10.50
2023-02-11T19:16:51.163Z,9.80
2023-02-11T19:20:32.541Z,11.40
2023-02-11T19:24:40.602Z,10.80
2023-02-11T19:28:14.058Z,9.80
2023-02-11T19:32:09.506Z,11.90
2023-02-11T19:35:57.001Z,10.60
2023-02-11T19:39:44.387Z,11.20
2023-02-11T19:44:07.814Z,11.90
2023-02-11T19:51:03.905Z,10.70
2023-02-11T19:53:01.882Z,11.20
2023-02-11T19:57:59.449Z,10.20
2023-02-11T20:04:58.784Z,10.40
2023-02-11T20:08:50.661Z,9.60
2023-02-11T20:12:36.795Z,10.20
2023-02-11T20:16:13.702Z,9.50
2023-02-11T20:20:01.240Z,12.40
2023-02-11T20:23:45.982Z,11.70
2023-02-11T20:27:24.248Z,10.10
2023-02-11T20:31:37.326Z,10.30
2023-02-11T20:37:12.227Z,9.10
2023-02-11T20:40:14.071Z,9.60
2023-02-11T21:01:42.826Z,8.60
2023-02-11T21:03:44.790Z,9.00
2023-02-11T21:05:49.994Z,8.50
2023-02-11T21:10:34.459Z,8.70
2023-02-11T21:10:48.878Z,8.90
2023-02-11T21:13:35.873Z,7.80
2023-02-11T21:18:03.043Z,7.20
2023-02-11T21:21:24.706Z,5.20
2023-02-11T21:25:12.578Z,3.90
2023-02-11T21:29:20.805Z,2.40
2023-02-11T21:33:08.874Z,1.80
2023-02-11T21:36:58.266Z,1.50
2023-02-11T21:40:45.143Z,1.70
2023-02-11T21:44:32.629Z,1.80
2023-02-11T21:48:24.247Z,1.30
2023-02-11T21:52:12.532Z,1.40
2023-02-11T21:55:59.383Z,1.00
2023-02-11T21:59:32.312Z,1.60
2023-02-11T22:03:38.927Z,1.40
2023-02-11T22:07:27.798Z,1.30
2023-02-11T22:11:23.497Z,1.20
2023-02-11T22:15:02.218Z,1.30
2023-02-11T22:18:50.048Z,1.40
2023-02-11T22:22:26.596Z,1.90
2023-02-11T22:26:04.878Z,1.30
2023-02-11T22:29:52.724Z,1.70
2023-02-11T22:33:40.149Z,1.20
2023-02-11T22:37:07.138Z,1.00
2023-02-11T22:40:56.594Z,1.50
2023-02-11T22:44:44.097Z,1.40
2023-02-11T22:48:16.521Z,1.20
2023-02-11T22:52:04.317Z,0.90
2023-02-11T22:55:53.356Z,0.90
2023-02-11T22:59:43.722Z,1.50
2023-02-11T23:03:33.090Z,1.00
2023-02-11T23:07:16.449Z,1.10
2023-02-11T23:10:48.604Z,0.90
2023-02-11T23:14:26.137Z,1.40
2023-02-11T23:18:13.893Z,1.10
2023-02-11T23:22:11.703Z,1.20
2023-02-11T23:25:59.436Z,1.10
2023-02-11T23:29:37.124Z,1.20
2023-02-11T23:33:18.263Z,1.50
2023-02-11T23:37:05.706Z,1.00
2023-02-11T23:40:48.221Z,1.10
2023-02-11T23:44:35.704Z,1.00
2023-02-11T23:48:11.559Z,0.90
2023-02-11T23:52:38.924Z,0.80
2023-02-11T23:56:00.547Z,1.20
2023-02-11T23:59:38.975Z,1.00
